sensor_id;sensor_type;location;lat;lon;timestamp;temperature;humidity
16321;DHT22;8269;50.990;4.494;2023-11-21T18:45:38;9.30;99.90
16321;DHT22;8269;50.990;4.494;2023-11-21T18:48:04;9.40;99.90
16321;DHT22;8269;50.990;4.494;2023-11-21T18:50:30;9.40;99.90
16321;DHT22;8269;50.990;4.494;2023-11-21T18:52:55;9.40;99.90
16321;DHT22;8269;50.990;4.494;2023-11-21T18:55:21;9.30;99.90
16321;DHT22;8269;50.990;4.494;2023-11-21T19:05:05;9.10;99.90
16321;DHT22;8269;50.990;4.494;2023-11-21T19:07:31;9.10;99.90
16321;DHT22;8269;50.990;4.494;2023-11-21T19:27:10;8.90;99.90
16321;DHT22;8269;50.990;4.494;2023-11-21T19:46:48;8.80;99.90
16321;DHT22;8269;50.990;4.494;2023-11-21T19:49:13;8.70;99.90
16321;DHT22;8269;50.990;4.494;2023-11-21T19:51:39;8.70;99.90
16321;DHT22;8269;50.990;4.494;2023-11-21T19:54:04;8.60;99.90
16321;DHT22;8269;50.990;4.494;2023-11-21T19:56:30;8.60;99.90
16321;DHT22;8269;50.990;4.494;2023-11-21T19:58:56;8.50;99.90
16321;DHT22;8269;50.990;4.494;2023-11-21T20:01:22;8.50;99.90
16321;DHT22;8269;50.990;4.494;2023-11-21T20:03:47;8.50;99.90
16321;DHT22;8269;50.990;4.494;2023-11-21T20:06:13;8.40;99.90
16321;DHT22;8269;50.990;4.494;2023-11-21T20:08:39;8.20;99.90
16321;DHT22;8269;50.990;4.494;2023-11-21T20:11:04;8.20;99.90
16321;DHT22;8269;50.990;4.494;2023-11-21T20:13:31;8.50;99.90
16321;DHT22;8269;50.990;4.494;2023-11-21T20:15:57;8.10;99.90
16321;DHT22;8269;50.990;4.494;2023-11-21T20:18:23;8.10;99.90
16321;DHT22;8269;50.990;4.494;2023-11-21T20:21:06;8.00;99.90
16321;DHT22;8269;50.990;4.494;2023-11-21T20:23:33;7.90;99.90
16321;DHT22;8269;50.990;4.494;2023-11-21T20:25:59;7.90;99.90
16321;DHT22;8269;50.990;4.494;2023-11-21T20:28:27;7.90;99.90
16321;DHT22;8269;50.990;4.494;2023-11-21T20:30:52;7.70;99.90
16321;DHT22;8269;50.990;4.494;2023-11-21T20:33:18;7.70;99.90
16321;DHT22;8269;50.990;4.494;2023-11-21T20:35:44;7.50;99.90
16321;DHT22;8269;50.990;4.494;2023-11-21T20:38:10;7.40;99.90
16321;DHT22;8269;50.990;4.494;2023-11-21T20:40:38;7.30;99.90
16321;DHT22;8269;50.990;4.494;2023-11-21T20:43:04;7.30;99.90
16321;DHT22;8269;50.990;4.494;2023-11-21T20:45:31;7.20;99.90
16321;DHT22;8269;50.990;4.494;2023-11-21T20:47:57;7.30;99.90
16321;DHT22;8269;50.990;4.494;2023-11-21T20:50:23;7.00;99.90
16321;DHT22;8269;50.990;4.494;2023-11-21T20:52:49;7.00;99.90
16321;DHT22;8269;50.990;4.494;2023-11-21T20:55:15;7.00;99.90
16321;DHT22;8269;50.990;4.494;2023-11-21T20:57:41;6.90;99.90
16321;DHT22;8269;50.990;4.494;2023-11-21T21:00:08;6.90;99.90
16321;DHT22;8269;50.990;4.494;2023-11-21T21:02:39;6.80;99.90
16321;DHT22;8269;50.990;4.494;2023-11-21T21:05:05;6.80;99.90
16321;DHT22;8269;50.990;4.494;2023-11-21T21:07:35;6.70;99.90
16321;DHT22;8269;50.990;4.494;2023-11-21T21:10:00;6.70;99.90
16321;DHT22;8269;50.990;4.494;2023-11-21T21:12:26;6.60;99.90
16321;DHT22;8269;50.990;4.494;2023-11-21T21:14:51;6.60;99.90
16321;DHT22;8269;50.990;4.494;2023-11-21T21:17:17;6.60;99.90
16321;DHT22;8269;50.990;4.494;2023-11-21T21:19:43;6.50;99.90
16321;DHT22;8269;50.990;4.494;2023-11-21T21:22:09;6.40;99.90
16321;DHT22;8269;50.990;4.494;2023-11-21T21:24:34;6.40;99.90
16321;DHT22;8269;50.990;4.494;2023-11-21T21:27:00;6.40;99.90
16321;DHT22;8269;50.990;4.494;2023-11-21T21:29:25;6.30;99.90
16321;DHT22;8269;50.990;4.494;2023-11-21T21:31:52;6.30;99.90
16321;DHT22;8269;50.990;4.494;2023-11-21T21:34:17;6.30;99.90
16321;DHT22;8269;50.990;4.494;2023-11-21T21:36:43;6.20;99.90
16321;DHT22;8269;50.990;4.494;2023-11-21T21:39:10;6.20;99.90
16321;DHT22;8269;50.990;4.494;2023-11-21T21:41:36;6.10;99.90
16321;DHT22;8269;50.990;4.494;2023-11-21T21:44:02;6.10;99.90
16321;DHT22;8269;50.990;4.494;2023-11-21T21:46:27;6.10;99.90
16321;DHT22;8269;50.990;4.494;2023-11-21T21:48:53;6.10;99.90
16321;DHT22;8269;50.990;4.494;2023-11-21T21:51:18;6.00;99.90
16321;DHT22;8269;50.990;4.494;2023-11-21T21:53:44;5.90;99.90
16321;DHT22;8269;50.990;4.494;2023-11-21T21:56:10;5.90;99.90
16321;DHT22;8269;50.990;4.494;2023-11-21T21:58:37;5.90;99.90
16321;DHT22;8269;50.990;4.494;2023-11-21T22:01:02;6.00;99.90
16321;DHT22;8269;50.990;4.494;2023-11-21T22:03:31;5.90;99.90
16321;DHT22;8269;50.990;4.494;2023-11-21T22:05:57;5.80;99.90
16321;DHT22;8269;50.990;4.494;2023-11-21T22:08:23;5.80;99.90
16321;DHT22;8269;50.990;4.494;2023-11-21T22:10:49;5.80;99.90
16321;DHT22;8269;50.990;4.494;2023-11-21T22:13:14;5.80;99.90
16321;DHT22;8269;50.990;4.494;2023-11-21T22:15:40;5.70;99.90
16321;DHT22;8269;50.990;4.494;2023-11-21T22:18:06;5.70;99.90
16321;DHT22;8269;50.990;4.494;2023-11-21T22:20:31;5.70;99.90
16321;DHT22;8269;50.990;4.494;2023-11-21T22:22:59;5.60;99.90
16321;DHT22;8269;50.990;4.494;2023-11-21T22:25:24;5.60;99.90
16321;DHT22;8269;50.990;4.494;2023-11-21T22:27:51;5.60;99.90
16321;DHT22;8269;50.990;4.494;2023-11-21T22:30:17;5.60;99.90
16321;DHT22;8269;50.990;4.494;2023-11-21T22:32:43;5.50;99.90
16321;DHT22;8269;50.990;4.494;2023-11-21T22:35:08;5.60;99.90
16321;DHT22;8269;50.990;4.494;2023-11-21T22:37:34;5.50;99.90
16321;DHT22;8269;50.990;4.494;2023-11-21T22:40:00;5.40;99.90
16321;DHT22;8269;50.990;4.494;2023-11-21T22:42:25;5.40;99.90
16321;DHT22;8269;50.990;4.494;2023-11-21T22:44:51;5.40;99.90
16321;DHT22;8269;50.990;4.494;2023-11-21T22:47:16;5.40;99.90
16321;DHT22;8269;50.990;4.494;2023-11-21T22:49:46;5.40;99.90
16321;DHT22;8269;50.990;4.494;2023-11-21T22:52:12;5.30;99.90
16321;DHT22;8269;50.990;4.494;2023-11-21T22:54:37;5.30;99.90
16321;DHT22;8269;50.990;4.494;2023-11-21T22:57:03;5.30;99.90
16321;DHT22;8269;50.990;4.494;2023-11-21T22:59:29;5.30;99.90
16321;DHT22;8269;50.990;4.494;2023-11-21T23:01:54;5.20;99.90
16321;DHT22;8269;50.990;4.494;2023-11-21T23:04:20;5.20;99.90
16321;DHT22;8269;50.990;4.494;2023-11-21T23:06:46;5.20;99.90
16321;DHT22;8269;50.990;4.494;2023-11-21T23:09:12;5.20;99.90
